This is the latest recevied weather packets stored in our database for station/object KG5CK-1. If no packets are shown the sender has not sent any weather packets the latest 1 day(s).
| Time | Temp. | Humidity | Pressure | Rain* | Wind** | Luminosity | Snow |
|---|---|---|---|---|---|---|---|
| 1778042463 | 17.22° C | 82% | 1005.4 hPa | 0 mm | 0.89 m/s, 13° | - | - |
| 1778042343 | 17.22° C | 82% | 1005.4 hPa | 0 mm | 2.68 m/s, 9° | - | - |
| 1778041923 | 17.22° C | 81% | 1005.4 hPa | 0 mm | 2.68 m/s, 11° | - | - |
| 1778041743 | 17.78° C | 81% | 1005.1 hPa | 0 mm | 2.24 m/s, 37° | - | - |
| 1778041683 | 17.78° C | 81% | 1005.1 hPa | 0 mm | 2.24 m/s, 37° | - | - |
| 1778041563 | 17.78° C | 81% | 1005.1 hPa | 0 mm | 2.24 m/s, 37° | - | - |
| 1778041503 | 17.78° C | 82% | 1005.3 hPa | 0 mm | 0.89 m/s, 34° | - | - |
| 1778041443 | 17.78° C | 82% | 1005.3 hPa | 0 mm | 0.89 m/s, 34° | - | - |
| 1778041383 | 17.78° C | 82% | 1005.3 hPa | 0 mm | 0.89 m/s, 34° | - | - |
| 1778041323 | 17.78° C | 82% | 1005.3 hPa | 0 mm | 0.89 m/s, 34° | - | - |
| 1778041263 | 17.78° C | 82% | 1005.3 hPa | 0 mm | 0.89 m/s, 34° | - | - |
| 1778041143 | 17.78° C | 82% | 1005.2 hPa | 0 mm | 1.79 m/s, 16° | - | - |
| 1778041083 | 17.78° C | 82% | 1005.2 hPa | 0 mm | 1.79 m/s, 16° | - | - |
| 1778040843 | 17.78° C | 81% | 1005 hPa | 0 mm | 0.89 m/s, 26° | - | - |
| 1778040723 | 17.78° C | 81% | 1005 hPa | 0 mm | 0.89 m/s, 26° | - | - |
| 1778040663 | 17.78° C | 81% | 1005 hPa | 0 mm | 0.89 m/s, 26° | - | - |
| 1778040543 | 17.78° C | 81% | 1005 hPa | 0 mm | 0.89 m/s, 44° | - | - |
| 1778040243 | 18.33° C | 81% | 1005 hPa | 0 mm | 1.79 m/s, 27° | - | - |
| 1778040063 | 18.33° C | 81% | 1005 hPa | 0 mm | 2.68 m/s, 1° | - | - |
| 1778040003 | 18.33° C | 81% | 1005 hPa | 0 mm | 2.68 m/s, 1° | - | - |
| 1778039944 | 18.33° C | 81% | 1005 hPa | 0 mm | 2.68 m/s, 1° | - | - |
| 1778039883 | 18.33° C | 81% | 1005 hPa | 0 mm | 2.68 m/s, 1° | - | - |
| 1778039822 | 18.33° C | 81% | 1005 hPa | 0 mm | 2.68 m/s, 1° | - | - |
| 1778039763 | 18.33° C | 81% | 1005 hPa | 0 mm | 2.68 m/s, 1° | - | - |
| 1778039643 | 18.89° C | 81% | 1004.9 hPa | 0 mm | 1.79 m/s, 18° | - | - |
* Rain latest hour (hover to see other rain measurements)
** Current wind speed in m/s (hover to see current wind gust speed)